createdAt,value
2019-04-01T00:00:08.806Z,0.00
2019-04-01T00:01:07.820Z,0.00
2019-04-01T00:02:07.672Z,0.00
2019-04-01T00:03:07.709Z,0.00
2019-04-01T00:04:07.627Z,0.00
2019-04-01T00:05:08.208Z,0.00
2019-04-01T00:06:07.588Z,0.00
2019-04-01T00:07:07.755Z,0.00
2019-04-01T00:08:07.566Z,0.00
2019-04-01T00:09:08.043Z,0.00
2019-04-01T00:10:07.975Z,0.00
2019-04-01T00:11:08.283Z,0.00
2019-04-01T00:12:07.555Z,0.00
2019-04-01T00:13:09.696Z,0.00
2019-04-01T00:14:07.877Z,0.00
2019-04-01T00:15:07.995Z,0.00
2019-04-01T00:16:07.876Z,0.00
2019-04-01T00:17:09.404Z,0.00
2019-04-01T00:18:07.980Z,0.00
2019-04-01T00:19:07.811Z,0.00
2019-04-01T00:20:07.693Z,0.00
2019-04-01T00:21:07.639Z,0.00
2019-04-01T00:22:07.555Z,0.00
2019-04-01T00:23:08.832Z,0.00
2019-04-01T00:24:07.678Z,0.00
2019-04-01T00:25:07.616Z,0.00
2019-04-01T00:26:07.553Z,0.00
2019-04-01T00:27:08.590Z,0.00
2019-04-01T00:28:08.834Z,0.00
2019-04-01T00:29:07.490Z,0.00
2019-04-01T00:30:07.539Z,0.00
2019-04-01T00:31:06.670Z,0.00
2019-04-01T00:32:06.632Z,0.00
2019-04-01T00:33:08.348Z,0.00
2019-04-01T00:34:06.705Z,0.00
2019-04-01T00:35:06.831Z,0.00
2019-04-01T00:36:06.660Z,0.00
2019-04-01T00:37:06.876Z,0.00
2019-04-01T00:38:06.754Z,0.00
2019-04-01T00:39:09.204Z,0.00
2019-04-01T00:40:06.699Z,0.00
2019-04-01T00:41:06.955Z,0.00
2019-04-01T00:42:06.721Z,0.00
2019-04-01T00:43:06.770Z,0.00
2019-04-01T00:44:07.830Z,0.00
2019-04-01T00:45:09.110Z,0.00
2019-04-01T00:46:06.605Z,0.00
2019-04-01T00:47:06.795Z,0.00
2019-04-01T00:48:06.609Z,0.00
2019-04-01T00:49:06.642Z,0.00
2019-04-01T00:50:06.689Z,0.00
2019-04-01T00:51:06.807Z,0.00
2019-04-01T00:52:06.420Z,0.00
2019-04-01T00:53:06.399Z,0.00
2019-04-01T00:54:09.864Z,0.00
2019-04-01T00:55:06.383Z,0.00
2019-04-01T00:56:06.399Z,0.00
2019-04-01T00:57:06.701Z,0.00
2019-04-01T00:58:06.355Z,0.00
2019-04-01T00:59:06.341Z,0.00
2019-04-01T01:00:06.330Z,0.00
2019-04-01T01:01:06.321Z,0.00
2019-04-01T01:02:08.104Z,0.00
2019-04-01T01:03:06.307Z,0.00
2019-04-01T01:04:06.285Z,0.00
2019-04-01T01:05:07.349Z,0.00
2019-04-01T01:06:06.259Z,0.00
2019-04-01T01:07:06.308Z,0.00
2019-04-01T01:08:06.621Z,0.00
2019-04-01T01:09:06.238Z,0.00
2019-04-01T01:10:06.221Z,0.00
2019-04-01T01:11:06.312Z,0.00
2019-04-01T01:12:06.197Z,0.00
2019-04-01T01:13:06.286Z,0.00
2019-04-01T01:14:06.757Z,0.00
2019-04-01T01:15:06.158Z,0.00
2019-04-01T01:16:06.158Z,0.00
2019-04-01T01:17:06.149Z,0.00
2019-04-01T01:18:06.693Z,0.00
2019-04-01T01:19:06.329Z,0.00
2019-04-01T01:20:06.115Z,0.00
2019-04-01T01:21:06.092Z,0.00
2019-04-01T01:22:06.097Z,0.00
2019-04-01T01:23:06.082Z,0.00
2019-04-01T01:24:06.064Z,0.00
2019-04-01T01:25:06.247Z,0.00
2019-04-01T01:26:06.107Z,0.00
2019-04-01T01:27:06.030Z,0.00
2019-04-01T01:28:06.115Z,0.00
2019-04-01T01:29:06.350Z,0.00
2019-04-01T01:30:06.017Z,0.00
2019-04-01T01:31:06.100Z,0.00
2019-04-01T01:32:06.109Z,0.00
2019-04-01T01:33:05.966Z,0.00
2019-04-01T01:34:05.950Z,0.00
2019-04-01T01:35:05.944Z,0.00
2019-04-01T01:36:06.074Z,0.00
2019-04-01T01:37:05.927Z,0.00
2019-04-01T01:38:11.316Z,0.00
2019-04-01T01:39:05.981Z,0.00
2019-04-01T01:40:05.911Z,0.00
2019-04-01T01:41:06.183Z,0.00
2019-04-01T01:42:08.293Z,0.00
2019-04-01T01:43:05.860Z,0.00
2019-04-01T01:44:06.206Z,0.00
2019-04-01T01:45:05.919Z,0.00
2019-04-01T01:46:05.844Z,0.00
2019-04-01T01:47:05.815Z,0.00
2019-04-01T01:48:05.824Z,0.00
2019-04-01T01:49:05.787Z,0.00
2019-04-01T01:50:10.832Z,0.00
2019-04-01T01:51:05.773Z,0.00
2019-04-01T01:52:05.855Z,0.00
2019-04-01T01:53:05.745Z,0.00
2019-04-01T01:54:05.761Z,0.00
2019-04-01T01:55:05.729Z,0.00
2019-04-01T01:56:06.040Z,0.00
2019-04-01T01:57:05.707Z,0.00
2019-04-01T01:58:05.754Z,0.00
2019-04-01T01:59:05.683Z,0.00
2019-04-01T02:00:05.791Z,0.00
2019-04-01T02:01:05.821Z,0.00
2019-04-01T02:02:05.643Z,0.00
2019-04-01T02:03:05.636Z,0.00
2019-04-01T02:04:05.641Z,0.00
2019-04-01T02:05:05.683Z,0.00
2019-04-01T02:06:06.142Z,0.00
2019-04-01T02:07:05.760Z,0.00
2019-04-01T02:08:05.580Z,0.00
2019-04-01T02:09:05.588Z,0.00
2019-04-01T02:10:05.569Z,0.00
2019-04-01T02:11:09.072Z,0.00
2019-04-01T02:12:05.538Z,0.00
2019-04-01T02:13:05.662Z,0.00
2019-04-01T02:14:05.517Z,0.00
2019-04-01T02:15:05.506Z,0.00
2019-04-01T02:16:05.499Z,0.00
2019-04-01T02:17:05.588Z,0.00
2019-04-01T02:18:05.467Z,0.00
2019-04-01T02:19:05.766Z,0.00
2019-04-01T02:20:06.264Z,0.00
2019-04-01T02:21:05.445Z,0.00
2019-04-01T02:22:05.456Z,0.00
2019-04-01T02:23:05.423Z,0.00
2019-04-01T02:24:05.589Z,0.00
2019-04-01T02:25:13.379Z,0.00
2019-04-01T02:26:05.378Z,0.00
2019-04-01T02:27:05.385Z,0.00
2019-04-01T02:28:05.969Z,0.00
2019-04-01T02:29:05.360Z,0.00
2019-04-01T02:30:05.976Z,0.00
2019-04-01T02:31:05.330Z,0.00
2019-04-01T02:32:08.217Z,0.00
2019-04-01T02:33:05.316Z,0.00
2019-04-01T02:34:05.660Z,0.00
2019-04-01T02:35:05.304Z,0.00
2019-04-01T02:36:18.051Z,0.00
2019-04-01T02:37:05.284Z,0.00
2019-04-01T02:38:05.258Z,0.00
2019-04-01T02:39:06.044Z,0.00
2019-04-01T02:40:05.687Z,0.00
2019-04-01T02:41:05.361Z,0.00
2019-04-01T02:42:05.680Z,0.00
2019-04-01T02:43:05.215Z,0.00
2019-04-01T02:44:05.478Z,0.00
2019-04-01T02:45:05.178Z,0.00
2019-04-01T02:46:05.171Z,0.00
2019-04-01T02:47:05.540Z,0.00
2019-04-01T02:48:05.149Z,0.00
2019-04-01T02:49:05.158Z,0.00
2019-04-01T02:50:05.142Z,0.00
2019-04-01T02:51:05.229Z,0.00
2019-04-01T02:52:05.116Z,0.00
2019-04-01T02:53:10.580Z,0.00
2019-04-01T02:54:05.902Z,0.00
2019-04-01T02:55:06.902Z,0.00
2019-04-01T02:56:05.112Z,0.00
2019-04-01T02:57:05.056Z,0.00
2019-04-01T02:58:05.128Z,0.00
2019-04-01T02:59:05.644Z,0.00
2019-04-01T03:00:05.025Z,0.00
2019-04-01T03:01:05.014Z,0.00
2019-04-01T03:02:04.994Z,0.00
2019-04-01T03:03:04.999Z,0.00
2019-04-01T03:04:04.973Z,0.00
2019-04-01T03:05:05.153Z,0.00
2019-04-01T03:06:05.063Z,0.00
2019-04-01T03:07:05.291Z,0.00
2019-04-01T03:08:05.275Z,0.00
2019-04-01T03:09:04.926Z,0.00
2019-04-01T03:10:05.209Z,0.00
2019-04-01T03:11:09.627Z,0.00
2019-04-01T03:12:06.098Z,0.00
2019-04-01T03:13:04.882Z,0.00
2019-04-01T03:14:04.870Z,0.00
2019-04-01T03:15:04.880Z,0.00
2019-04-01T03:16:04.855Z,0.00
2019-04-01T03:17:04.843Z,0.00
2019-04-01T03:18:05.442Z,0.00
2019-04-01T03:19:05.238Z,0.00
2019-04-01T03:20:04.807Z,0.00
2019-04-01T03:21:05.001Z,0.00
2019-04-01T03:22:04.781Z,0.00
2019-04-01T03:23:04.944Z,0.00
2019-04-01T03:24:05.740Z,0.00
2019-04-01T03:25:05.276Z,0.00
2019-04-01T03:26:04.760Z,0.00
2019-04-01T03:27:04.822Z,0.00
2019-04-01T03:28:05.053Z,0.00
2019-04-01T03:29:05.124Z,0.00
2019-04-01T03:30:05.054Z,0.00
2019-04-01T03:31:05.321Z,0.00
2019-04-01T03:32:06.585Z,0.00
2019-04-01T03:33:04.672Z,0.00
2019-04-01T03:34:04.654Z,0.00
2019-04-01T03:35:04.642Z,0.00
2019-04-01T03:36:04.634Z,0.00
2019-04-01T03:37:05.025Z,0.00
2019-04-01T03:38:04.844Z,0.00
2019-04-01T03:39:05.023Z,0.00
2019-04-01T03:40:04.850Z,0.00
2019-04-01T03:41:04.615Z,0.00
2019-04-01T03:42:06.024Z,0.00
2019-04-01T03:43:04.610Z,0.00
2019-04-01T03:44:25.843Z,0.00
2019-04-01T03:45:04.949Z,0.00
2019-04-01T03:46:04.584Z,0.00
2019-04-01T03:47:04.604Z,0.00
2019-04-01T03:48:05.203Z,0.00
2019-04-01T03:49:04.681Z,0.00
2019-04-01T03:50:05.215Z,0.00
2019-04-01T03:51:04.673Z,0.00
2019-04-01T03:52:04.603Z,0.00
2019-04-01T03:53:04.462Z,0.00
2019-04-01T03:54:04.432Z,0.00
2019-04-01T03:55:04.437Z,0.00
2019-04-01T03:56:04.884Z,0.00
2019-04-01T03:57:05.077Z,0.00
2019-04-01T03:58:04.393Z,0.00
2019-04-01T03:59:04.410Z,0.00
2019-04-01T04:00:04.394Z,0.00
2019-04-01T04:01:05.318Z,0.00
2019-04-01T04:02:04.349Z,0.00
2019-04-01T04:03:04.375Z,0.00
2019-04-01T04:04:04.345Z,0.00
2019-04-01T04:05:04.316Z,0.00
2019-04-01T04:06:04.316Z,0.00
2019-04-01T04:07:05.334Z,4.00
2019-04-01T04:08:08.573Z,4.00
2019-04-01T04:09:06.014Z,0.00
2019-04-01T04:10:04.490Z,4.00
2019-04-01T04:11:06.043Z,4.00
2019-04-01T04:12:04.593Z,4.00
2019-04-01T04:13:04.239Z,4.00
2019-04-01T04:14:04.303Z,4.00
2019-04-01T04:15:04.435Z,4.00
2019-04-01T04:16:04.284Z,8.00
2019-04-01T04:17:04.192Z,12.00
2019-04-01T04:18:04.821Z,8.00
2019-04-01T04:19:04.188Z,12.00
2019-04-01T04:20:04.184Z,12.00
2019-04-01T04:21:04.161Z,16.00
2019-04-01T04:22:04.147Z,20.00
2019-04-01T04:23:04.320Z,24.00
2019-04-01T04:24:04.393Z,28.00
2019-04-01T04:25:04.173Z,32.00
2019-04-01T04:26:04.110Z,36.00
2019-04-01T04:27:04.294Z,44.00
2019-04-01T04:28:04.068Z,48.00
2019-04-01T04:29:04.105Z,60.00
2019-04-01T04:30:06.021Z,68.00
2019-04-01T04:31:04.312Z,76.00
2019-04-01T04:32:04.043Z,92.00
2019-04-01T04:33:04.464Z,100.00
2019-04-01T04:34:04.006Z,120.00
2019-04-01T04:35:04.007Z,132.00
2019-04-01T04:36:04.006Z,148.00
2019-04-01T04:37:03.992Z,168.00
2019-04-01T04:38:04.163Z,188.00
2019-04-01T04:39:03.951Z,208.00
2019-04-01T04:40:04.000Z,232.00
2019-04-01T04:41:03.929Z,252.00
2019-04-01T04:42:03.945Z,284.00
2019-04-01T04:43:03.917Z,308.00
2019-04-01T04:44:04.063Z,340.00
2019-04-01T04:45:03.898Z,368.00
2019-04-01T04:46:04.084Z,400.00
2019-04-01T04:47:08.768Z,432.00
2019-04-01T04:48:03.885Z,468.00
2019-04-01T04:49:03.857Z,504.00
2019-04-01T04:50:03.885Z,544.00
2019-04-01T04:51:08.802Z,580.00
2019-04-01T04:52:04.718Z,620.00
2019-04-01T04:53:03.803Z,664.00
2019-04-01T04:54:03.804Z,704.00
2019-04-01T04:55:03.805Z,744.00
2019-04-01T04:56:04.392Z,788.00
2019-04-01T04:57:03.766Z,832.00
2019-04-01T04:58:03.753Z,876.00
2019-04-01T04:59:03.743Z,924.00
2019-04-01T05:00:12.252Z,968.00
2019-04-01T05:01:03.722Z,1008.00
2019-04-01T05:02:03.717Z,1056.00
2019-04-01T05:03:03.766Z,1100.00
2019-04-01T05:04:03.707Z,1144.00
2019-04-01T05:05:04.137Z,1192.00
2019-04-01T05:06:03.683Z,1240.00
2019-04-01T05:07:03.704Z,1284.00
2019-04-01T05:08:03.721Z,1332.00
2019-04-01T05:09:03.638Z,1376.00
2019-04-01T05:10:03.625Z,1424.00
2019-04-01T05:11:03.823Z,1472.00
2019-04-01T05:12:03.602Z,1512.00
2019-04-01T05:13:03.596Z,1556.00
2019-04-01T05:14:03.808Z,1604.00
2019-04-01T05:15:04.024Z,1644.00
2019-04-01T05:16:04.001Z,1688.00
2019-04-01T05:17:03.814Z,1732.00
2019-04-01T05:18:03.583Z,1772.00
2019-04-01T05:19:03.761Z,1816.00
2019-04-01T05:20:03.634Z,1864.00
2019-04-01T05:21:03.498Z,1912.00
2019-04-01T05:22:03.508Z,1964.00
2019-04-01T05:23:03.484Z,2024.00
2019-04-01T05:24:03.474Z,2084.00
2019-04-01T05:25:03.636Z,2160.00
2019-04-01T05:26:03.463Z,2248.00
2019-04-01T05:27:03.436Z,2384.00
2019-04-01T05:28:03.434Z,2588.00
2019-04-01T05:29:03.617Z,2788.00
2019-04-01T05:30:03.787Z,2980.00
2019-04-01T05:31:03.400Z,3148.00
2019-04-01T05:32:03.379Z,3288.00
2019-04-01T05:33:03.593Z,3428.00
2019-04-01T05:34:03.637Z,3536.00
2019-04-01T05:35:04.583Z,3432.00
2019-04-01T05:36:03.720Z,3532.00
2019-04-01T05:37:03.859Z,3856.00
2019-04-01T05:38:03.318Z,4080.00
2019-04-01T05:39:05.067Z,4220.00
2019-04-01T05:40:03.316Z,4348.00
2019-04-01T05:41:03.595Z,4472.00
2019-04-01T05:42:03.675Z,4596.00
2019-04-01T05:43:03.304Z,4724.00
2019-04-01T05:44:03.347Z,4868.00
2019-04-01T05:45:03.977Z,5008.00
2019-04-01T05:46:03.819Z,5148.00
2019-04-01T05:47:03.220Z,5284.00
2019-04-01T05:48:03.592Z,5412.00
2019-04-01T05:49:03.222Z,5568.00
2019-04-01T05:50:03.276Z,5724.00
2019-04-01T05:51:03.216Z,5856.00
2019-04-01T05:52:03.515Z,6012.00
2019-04-01T05:53:03.158Z,6160.00
2019-04-01T05:54:03.725Z,6308.00
2019-04-01T05:55:03.514Z,6464.00
2019-04-01T05:56:03.205Z,6620.00
2019-04-01T05:57:03.119Z,6780.00
2019-04-01T05:58:03.113Z,6912.00
2019-04-01T05:59:04.393Z,7084.00
2019-04-01T06:00:03.078Z,7240.00
2019-04-01T06:01:03.121Z,7408.00
2019-04-01T06:02:03.063Z,7560.00
2019-04-01T06:03:03.052Z,7692.00
2019-04-01T06:04:03.063Z,7820.00
2019-04-01T06:05:03.198Z,7944.00
2019-04-01T06:06:03.030Z,8072.00
2019-04-01T06:07:04.025Z,8180.00
2019-04-01T06:08:03.039Z,8312.00
2019-04-01T06:09:03.145Z,8432.00
2019-04-01T06:10:04.462Z,8548.00
2019-04-01T06:11:03.261Z,8652.00
2019-04-01T06:12:02.970Z,8760.00
2019-04-01T06:13:02.975Z,8860.00
2019-04-01T06:14:02.932Z,8936.00
2019-04-01T06:15:02.922Z,9048.00
2019-04-01T06:16:02.988Z,9152.00
2019-04-01T06:17:04.252Z,9284.00
2019-04-01T06:18:03.070Z,9428.00
2019-04-01T06:19:05.841Z,9568.00
2019-04-01T06:20:03.480Z,9724.00
2019-04-01T06:21:03.333Z,9832.00
2019-04-01T06:22:02.949Z,9936.00
2019-04-01T06:23:02.956Z,10076.00
2019-04-01T06:24:02.907Z,10224.00
2019-04-01T06:25:03.398Z,10392.00
2019-04-01T06:26:02.915Z,10540.00
2019-04-01T06:27:03.175Z,10696.00
2019-04-01T06:28:05.243Z,10912.00
2019-04-01T06:29:02.936Z,11132.00
2019-04-01T06:30:02.744Z,11428.00
2019-04-01T06:31:02.764Z,12128.00
2019-04-01T06:32:03.794Z,19136.00
2019-04-01T06:33:03.792Z,28224.00
2019-04-01T06:34:02.988Z,32256.00
2019-04-01T06:35:03.295Z,33632.00
2019-04-01T06:36:03.311Z,34848.00
2019-04-01T06:37:02.683Z,36416.00
2019-04-01T06:38:02.746Z,38336.00
2019-04-01T06:39:04.017Z,40128.00
2019-04-01T06:40:02.662Z,41152.00
2019-04-01T06:41:02.776Z,41184.00
2019-04-01T06:42:02.626Z,41408.00
2019-04-01T06:43:02.992Z,43104.00
2019-04-01T06:44:02.858Z,45312.00
2019-04-01T06:45:03.139Z,47168.00
2019-04-01T06:46:02.596Z,48896.00
2019-04-01T06:47:02.592Z,51424.00
2019-04-01T06:48:03.093Z,50784.00
2019-04-01T06:49:02.592Z,46656.00
2019-04-01T06:50:04.570Z,42880.00
2019-04-01T06:51:02.691Z,41376.00
2019-04-01T06:52:02.774Z,42880.00
2019-04-01T06:53:02.598Z,45024.00
2019-04-01T06:54:02.691Z,44224.00
2019-04-01T06:55:03.554Z,43424.00
2019-04-01T06:56:02.741Z,43616.00
2019-04-01T06:57:02.601Z,44256.00
2019-04-01T06:58:02.614Z,45440.00
2019-04-01T06:59:02.568Z,44608.00
2019-04-01T07:00:02.694Z,45056.00
2019-04-01T07:01:02.425Z,47264.00
2019-04-01T07:02:03.128Z,46432.00
2019-04-01T07:03:02.435Z,47232.00
2019-04-01T07:04:02.380Z,49952.00
2019-04-01T07:05:02.370Z,51776.00
2019-04-01T07:06:02.369Z,50464.00
2019-04-01T07:07:02.797Z,50496.00
2019-04-01T07:08:02.329Z,52416.00
2019-04-01T07:09:03.168Z,52160.00
2019-04-01T07:10:02.306Z,50208.00
2019-04-01T07:11:02.301Z,50848.00
2019-04-01T07:12:02.686Z,52576.00
2019-04-01T07:13:03.079Z,54048.00
2019-04-01T07:14:02.272Z,53824.00
2019-04-01T07:15:02.869Z,53696.00
2019-04-01T07:16:14.789Z,54144.00
2019-04-01T07:17:03.235Z,53376.00
2019-04-01T07:18:02.241Z,54080.00
2019-04-01T07:19:02.218Z,56768.00
2019-04-01T07:20:02.397Z,58304.00
2019-04-01T07:21:02.183Z,57440.00
2019-04-01T07:22:02.180Z,56128.00
2019-04-01T07:23:02.176Z,54176.00
2019-04-01T07:24:02.169Z,55104.00
2019-04-01T07:25:02.342Z,56512.00
2019-04-01T07:26:02.318Z,57312.00
2019-04-01T07:27:02.121Z,57248.00
2019-04-01T07:28:02.113Z,56736.00
2019-04-01T07:29:02.580Z,56800.00
2019-04-01T07:30:02.111Z,58496.00
2019-04-01T07:31:02.084Z,61120.00
2019-04-01T07:32:02.346Z,61792.00
2019-04-01T07:33:02.057Z,62528.00
2019-04-01T07:34:02.070Z,64480.00
2019-04-01T07:35:02.047Z,64864.00
2019-04-01T07:36:02.113Z,63616.00
2019-04-01T07:37:02.055Z,62912.00
2019-04-01T07:38:02.400Z,62112.00
2019-04-01T07:39:02.237Z,63296.00
2019-04-01T07:40:01.983Z,63200.00
2019-04-01T07:41:02.197Z,61216.00
2019-04-01T07:42:01.966Z,60928.00
2019-04-01T07:43:01.949Z,63072.00
2019-04-01T07:44:02.225Z,65664.00
2019-04-01T07:45:04.990Z,67904.00
2019-04-01T07:46:01.928Z,69504.00
2019-04-01T07:47:02.345Z,68608.00
2019-04-01T07:48:01.899Z,67968.00
2019-04-01T07:49:02.006Z,68032.00
2019-04-01T07:50:02.061Z,69024.00
2019-04-01T07:51:01.869Z,70304.00
2019-04-01T07:52:02.182Z,71104.00
2019-04-01T07:53:01.863Z,70592.00
2019-04-01T07:54:01.830Z,68928.00
2019-04-01T07:55:01.812Z,69312.00
2019-04-01T07:56:02.718Z,72256.00
2019-04-01T07:57:02.093Z,73280.00
2019-04-01T07:58:04.157Z,72512.00
2019-04-01T07:59:01.765Z,73120.00
2019-04-01T08:00:01.772Z,74496.00
2019-04-01T08:01:02.730Z,75648.00
2019-04-01T08:02:01.737Z,77344.00
2019-04-01T08:03:01.732Z,78528.00
2019-04-01T08:04:02.611Z,78336.00
2019-04-01T08:05:02.965Z,79488.00
2019-04-01T08:06:01.851Z,77216.00
2019-04-01T08:07:01.705Z,75200.00
2019-04-01T08:08:01.815Z,74528.00
2019-04-01T08:09:01.671Z,73920.00
2019-04-01T08:10:01.969Z,72128.00
2019-04-01T08:11:01.680Z,73280.00
2019-04-01T08:12:01.635Z,74848.00
2019-04-01T08:13:05.661Z,76928.00
2019-04-01T08:14:01.804Z,76032.00
2019-04-01T08:15:01.759Z,72896.00
2019-04-01T08:16:01.620Z,69152.00
2019-04-01T08:17:01.604Z,71840.00
2019-04-01T08:18:02.452Z,75936.00
2019-04-01T08:19:01.564Z,78432.00
2019-04-01T08:20:01.734Z,77888.00
2019-04-01T08:21:01.799Z,77856.00
2019-04-01T08:22:01.703Z,78784.00
2019-04-01T08:23:01.554Z,77632.00
2019-04-01T08:24:01.592Z,74080.00
2019-04-01T08:25:01.894Z,73408.00
2019-04-01T08:26:03.704Z,73664.00
2019-04-01T08:27:01.659Z,74464.00
2019-04-01T08:28:01.458Z,77248.00
2019-04-01T08:29:01.458Z,79264.00
2019-04-01T08:30:01.746Z,79136.00
2019-04-01T08:31:01.421Z,78112.00
2019-04-01T08:32:01.573Z,77440.00
2019-04-01T08:33:01.822Z,76096.00
2019-04-01T08:34:01.399Z,75680.00
2019-04-01T08:35:01.385Z,76416.00
2019-04-01T08:36:01.402Z,75936.00
2019-04-01T08:37:01.361Z,78816.00
2019-04-01T08:38:01.553Z,81792.00
2019-04-01T08:39:03.825Z,84096.00
2019-04-01T08:40:01.391Z,84128.00
2019-04-01T08:41:01.334Z,82304.00
2019-04-01T08:42:01.335Z,80384.00
2019-04-01T08:43:01.303Z,79616.00
2019-04-01T08:44:03.273Z,80704.00
2019-04-01T08:45:01.648Z,82464.00
2019-04-01T08:46:02.365Z,85408.00
2019-04-01T08:47:03.417Z,86880.00
2019-04-01T08:48:01.271Z,87936.00
2019-04-01T08:49:01.248Z,90880.00
2019-04-01T08:50:01.359Z,92288.00
2019-04-01T08:51:01.437Z,94016.00
2019-04-01T08:52:01.227Z,94464.00
2019-04-01T08:53:01.212Z,92320.00
2019-04-01T08:54:01.193Z,86720.00
2019-04-01T08:55:01.627Z,81440.00
2019-04-01T08:56:02.818Z,80576.00
2019-04-01T08:57:01.686Z,80160.00
2019-04-01T08:58:01.148Z,83328.00
2019-04-01T08:59:01.402Z,86720.00
2019-04-01T09:00:01.785Z,85312.00
2019-04-01T09:01:02.195Z,83648.00
2019-04-01T09:02:01.186Z,83680.00
2019-04-01T09:03:01.081Z,84512.00
2019-04-01T09:04:01.063Z,84736.00
2019-04-01T09:05:01.521Z,85760.00
2019-04-01T09:06:01.447Z,85632.00
2019-04-01T09:07:09.304Z,82784.00
2019-04-01T09:08:01.026Z,79776.00
2019-04-01T09:09:01.028Z,80608.00
2019-04-01T09:10:01.036Z,84128.00
2019-04-01T09:11:01.027Z,83744.00
2019-04-01T09:12:01.559Z,81024.00
2019-04-01T09:13:00.967Z,82368.00
2019-04-01T09:14:00.987Z,83872.00
2019-04-01T09:15:01.170Z,88032.00
2019-04-01T09:16:00.946Z,88288.00
2019-04-01T09:17:00.938Z,86208.00
2019-04-01T09:18:01.523Z,84928.00
2019-04-01T09:19:01.297Z,84896.00
2019-04-01T09:20:00.899Z,85344.00
2019-04-01T09:21:00.891Z,85952.00
2019-04-01T09:22:01.199Z,90528.00
2019-04-01T09:23:00.872Z,92960.00
2019-04-01T09:24:00.934Z,94496.00
2019-04-01T09:25:01.164Z,94432.00
2019-04-01T09:26:00.849Z,92800.00
2019-04-01T09:27:00.872Z,90560.00
2019-04-01T09:28:00.813Z,91552.00
2019-04-01T09:29:00.883Z,91616.00
2019-04-01T09:30:01.116Z,92736.00
2019-04-01T09:31:00.993Z,95840.00
2019-04-01T09:32:00.780Z,95552.00
2019-04-01T09:33:00.759Z,93760.00
2019-04-01T09:34:00.786Z,89536.00
2019-04-01T09:35:00.744Z,85952.00
2019-04-01T09:36:01.067Z,80256.00
2019-04-01T09:37:00.983Z,84992.00
2019-04-01T09:38:01.215Z,89504.00
2019-04-01T09:39:00.700Z,93376.00
2019-04-01T09:40:00.699Z,95392.00
2019-04-01T09:41:00.680Z,92096.00
2019-04-01T09:42:00.848Z,89440.00
2019-04-01T09:43:00.781Z,91776.00
2019-04-01T09:44:00.768Z,95904.00
2019-04-01T09:45:00.933Z,98688.00
2019-04-01T09:46:00.844Z,98560.00
2019-04-01T09:47:00.616Z,96544.00
2019-04-01T09:48:00.690Z,95328.00
2019-04-01T09:49:00.879Z,96384.00
2019-04-01T09:50:01.373Z,97920.00
2019-04-01T09:51:00.625Z,101472.00
2019-04-01T09:52:03.719Z,101952.00
2019-04-01T09:53:00.606Z,103328.00
2019-04-01T09:54:00.616Z,103456.00
2019-04-01T09:55:00.835Z,102624.00
2019-04-01T09:56:00.584Z,101728.00
2019-04-01T09:57:00.706Z,101856.00
2019-04-01T09:58:00.799Z,102624.00
2019-04-01T09:59:00.569Z,104448.00
2019-04-01T10:00:12.139Z,105696.00
2019-04-01T10:01:02.643Z,105120.00
2019-04-01T10:02:00.467Z,105248.00
2019-04-01T10:03:01.073Z,98656.00
2019-04-01T10:04:00.519Z,97888.00
2019-04-01T10:05:00.455Z,96224.00
2019-04-01T10:06:01.215Z,97216.00
2019-04-01T10:07:00.405Z,99552.00
2019-04-01T10:08:00.425Z,105984.00
2019-04-01T10:09:00.428Z,110784.00
2019-04-01T10:10:00.382Z,113600.00
2019-04-01T10:11:01.343Z,112544.00
2019-04-01T10:12:01.105Z,109248.00
2019-04-01T10:13:05.188Z,104416.00
2019-04-01T10:14:00.335Z,100928.00
2019-04-01T10:15:00.358Z,100672.00
2019-04-01T10:16:00.346Z,103264.00
2019-04-01T10:17:00.805Z,103104.00
2019-04-01T10:18:00.405Z,104704.00
2019-04-01T10:19:00.844Z,104832.00
2019-04-01T10:20:01.102Z,105472.00
2019-04-01T10:21:00.275Z,106912.00
2019-04-01T10:22:00.278Z,104768.00
2019-04-01T10:23:00.406Z,105792.00
2019-04-01T10:24:01.659Z,104448.00
2019-04-01T10:25:00.419Z,105792.00
2019-04-01T10:26:00.214Z,107648.00
2019-04-01T10:27:00.306Z,108384.00
2019-04-01T10:28:00.211Z,107104.00
2019-04-01T10:29:02.839Z,105248.00
2019-04-01T10:30:00.394Z,107520.00
2019-04-01T10:31:00.153Z,106944.00
2019-04-01T10:32:00.150Z,104576.00
2019-04-01T10:33:02.207Z,93632.00
2019-04-01T10:34:00.142Z,85696.00
2019-04-01T10:35:01.201Z,83552.00
2019-04-01T10:36:00.104Z,91520.00
2019-04-01T10:37:00.304Z,103520.00
2019-04-01T10:38:00.799Z,109088.00
2019-04-01T10:39:00.076Z,111488.00
2019-04-01T10:40:00.751Z,111712.00
2019-04-01T10:41:00.570Z,107456.00
2019-04-01T10:42:00.980Z,105792.00
2019-04-01T10:43:00.086Z,103552.00
2019-04-01T10:44:00.031Z,104992.00
2019-04-01T10:45:01.862Z,106400.00
2019-04-01T10:46:00.018Z,105792.00
2019-04-01T10:47:00.260Z,100544.00
2019-04-01T10:48:00.038Z,97504.00
2019-04-01T10:48:59.975Z,88928.00
2019-04-01T10:50:00.464Z,94976.00
2019-04-01T10:50:59.959Z,94944.00
2019-04-01T10:52:00.055Z,99776.00
2019-04-01T10:52:59.929Z,100576.00
2019-04-01T10:53:59.955Z,103520.00
2019-04-01T10:54:59.928Z,104032.00
2019-04-01T10:56:00.590Z,102560.00
2019-04-01T10:56:59.924Z,102528.00
2019-04-01T10:57:59.895Z,102720.00
2019-04-01T10:58:59.876Z,101760.00
2019-04-01T10:59:59.859Z,103584.00
2019-04-01T11:01:00.246Z,101440.00
2019-04-01T11:01:59.850Z,100032.00
2019-04-01T11:02:59.848Z,104096.00
2019-04-01T11:03:59.896Z,100768.00
2019-04-01T11:04:59.855Z,98592.00
2019-04-01T11:06:02.259Z,92704.00
2019-04-01T11:07:00.222Z,94304.00
2019-04-01T11:08:00.307Z,98624.00
2019-04-01T11:09:00.340Z,102304.00
2019-04-01T11:09:59.755Z,103488.00
2019-04-01T11:11:00.212Z,100224.00
2019-04-01T11:12:01.110Z,100928.00
2019-04-01T11:12:59.857Z,102080.00
2019-04-01T11:13:59.932Z,100000.00
2019-04-01T11:14:59.743Z,104352.00
2019-04-01T11:15:59.700Z,96544.00
2019-04-01T11:16:59.698Z,99648.00
2019-04-01T11:17:59.688Z,100896.00
2019-04-01T11:19:00.602Z,104608.00
2019-04-01T11:19:59.669Z,105920.00
2019-04-01T11:20:59.656Z,102656.00
2019-04-01T11:21:59.648Z,99264.00
2019-04-01T11:23:02.596Z,98976.00
2019-04-01T11:23:59.661Z,99392.00
2019-04-01T11:24:59.845Z,99840.00
2019-04-01T11:26:00.830Z,95264.00
2019-04-01T11:26:59.704Z,98176.00
2019-04-01T11:28:00.593Z,97312.00
2019-04-01T11:28:59.583Z,95296.00
2019-04-01T11:29:59.557Z,95488.00
2019-04-01T11:30:59.862Z,93664.00
2019-04-01T11:32:00.068Z,89184.00
2019-04-01T11:32:59.644Z,85024.00
2019-04-01T11:33:59.519Z,87424.00
2019-04-01T11:34:59.534Z,95072.00
2019-04-01T11:35:59.501Z,101504.00
2019-04-01T11:36:59.531Z,104000.00
2019-04-01T11:38:02.074Z,100768.00
2019-04-01T11:38:59.479Z,97920.00
2019-04-01T11:39:59.753Z,98112.00
2019-04-01T11:41:02.543Z,96640.00
2019-04-01T11:42:01.553Z,100576.00
2019-04-01T11:43:04.773Z,101696.00
2019-04-01T11:43:59.516Z,99040.00
2019-04-01T11:44:59.440Z,94560.00
2019-04-01T11:45:59.423Z,93152.00
2019-04-01T11:46:59.405Z,95136.00
2019-04-01T11:47:59.750Z,95840.00
2019-04-01T11:48:59.389Z,96608.00
2019-04-01T11:49:59.391Z,94464.00
2019-04-01T11:50:59.401Z,97184.00
2019-04-01T11:51:59.407Z,96704.00
2019-04-01T11:53:00.169Z,98944.00
2019-04-01T11:53:59.684Z,99680.00
2019-04-01T11:54:59.316Z,96576.00
2019-04-01T11:55:59.345Z,95488.00
2019-04-01T11:56:59.294Z,91680.00
2019-04-01T11:57:59.361Z,91648.00
2019-04-01T11:58:59.472Z,92224.00
2019-04-01T11:59:59.381Z,93600.00
2019-04-01T12:01:00.043Z,96704.00
2019-04-01T12:01:59.282Z,96480.00
2019-04-01T12:02:59.245Z,97376.00
2019-04-01T12:03:59.261Z,100256.00
2019-04-01T12:04:59.397Z,98176.00
2019-04-01T12:05:59.234Z,93632.00
2019-04-01T12:07:01.970Z,94752.00
2019-04-01T12:07:59.284Z,97216.00
2019-04-01T12:08:59.303Z,97792.00
2019-04-01T12:09:59.169Z,96256.00
2019-04-01T12:10:59.822Z,97856.00
2019-04-01T12:11:59.140Z,98560.00
2019-04-01T12:12:59.985Z,99872.00
2019-04-01T12:13:59.428Z,92928.00
2019-04-01T12:14:59.192Z,92064.00
2019-04-01T12:15:59.092Z,93440.00
2019-04-01T12:16:59.196Z,94752.00